sensor_id;sensor_type;location;lat;lon;timestamp;P1;durP1;ratioP1;P2;durP2;ratioP2
12356;SDS011;6243;51.244;6.774;2022-10-31T00:01:24;13.37;;;8.47;;
12356;SDS011;6243;51.244;6.774;2022-10-31T00:03:51;12.77;;;8.20;;
12356;SDS011;6243;51.244;6.774;2022-10-31T00:06:17;12.80;;;7.97;;
12356;SDS011;6243;51.244;6.774;2022-10-31T00:08:44;13.83;;;8.00;;
12356;SDS011;6243;51.244;6.774;2022-10-31T00:11:09;11.97;;;7.60;;
12356;SDS011;6243;51.244;6.774;2022-10-31T00:13:35;11.60;;;8.50;;
12356;SDS011;6243;51.244;6.774;2022-10-31T00:16:01;12.13;;;8.33;;
12356;SDS011;6243;51.244;6.774;2022-10-31T00:18:26;11.50;;;7.77;;
12356;SDS011;6243;51.244;6.774;2022-10-31T00:20:58;10.27;;;7.67;;
12356;SDS011;6243;51.244;6.774;2022-10-31T00:23:23;13.40;;;7.77;;
12356;SDS011;6243;51.244;6.774;2022-10-31T00:25:50;12.57;;;7.20;;
12356;SDS011;6243;51.244;6.774;2022-10-31T00:28:16;10.80;;;7.53;;
12356;SDS011;6243;51.244;6.774;2022-10-31T00:30:41;11.57;;;7.60;;
12356;SDS011;6243;51.244;6.774;2022-10-31T00:33:07;12.50;;;7.63;;
12356;SDS011;6243;51.244;6.774;2022-10-31T00:35:32;11.37;;;7.50;;
12356;SDS011;6243;51.244;6.774;2022-10-31T00:37:58;13.40;;;8.27;;
12356;SDS011;6243;51.244;6.774;2022-10-31T00:40:23;11.73;;;8.10;;
12356;SDS011;6243;51.244;6.774;2022-10-31T00:42:50;11.50;;;7.90;;
12356;SDS011;6243;51.244;6.774;2022-10-31T00:45:16;11.20;;;7.13;;
12356;SDS011;6243;51.244;6.774;2022-10-31T00:47:41;15.13;;;8.13;;
12356;SDS011;6243;51.244;6.774;2022-10-31T00:50:07;14.07;;;8.27;;
12356;SDS011;6243;51.244;6.774;2022-10-31T00:52:33;12.97;;;8.63;;
12356;SDS011;6243;51.244;6.774;2022-10-31T00:54:58;11.13;;;8.53;;
12356;SDS011;6243;51.244;6.774;2022-10-31T00:57:24;13.23;;;8.67;;
12356;SDS011;6243;51.244;6.774;2022-10-31T00:59:51;11.73;;;9.03;;
12356;SDS011;6243;51.244;6.774;2022-10-31T01:02:16;16.37;;;9.23;;
12356;SDS011;6243;51.244;6.774;2022-10-31T01:04:42;14.07;;;10.07;;
12356;SDS011;6243;51.244;6.774;2022-10-31T01:07:07;18.50;;;10.07;;
12356;SDS011;6243;51.244;6.774;2022-10-31T01:09:33;14.90;;;8.77;;
12356;SDS011;6243;51.244;6.774;2022-10-31T01:11:58;11.43;;;8.40;;
12356;SDS011;6243;51.244;6.774;2022-10-31T01:14:24;14.40;;;8.80;;
12356;SDS011;6243;51.244;6.774;2022-10-31T01:16:51;12.00;;;8.53;;
12356;SDS011;6243;51.244;6.774;2022-10-31T01:19:16;11.87;;;8.37;;
12356;SDS011;6243;51.244;6.774;2022-10-31T01:21:42;15.90;;;9.93;;
12356;SDS011;6243;51.244;6.774;2022-10-31T01:24:07;12.00;;;8.53;;
12356;SDS011;6243;51.244;6.774;2022-10-31T01:26:33;11.20;;;7.70;;
12356;SDS011;6243;51.244;6.774;2022-10-31T01:28:59;11.87;;;7.63;;
12356;SDS011;6243;51.244;6.774;2022-10-31T01:31:26;12.77;;;8.60;;
12356;SDS011;6243;51.244;6.774;2022-10-31T01:33:54;14.93;;;9.07;;
12356;SDS011;6243;51.244;6.774;2022-10-31T01:36:21;12.83;;;9.00;;
12356;SDS011;6243;51.244;6.774;2022-10-31T01:38:48;10.23;;;8.43;;
12356;SDS011;6243;51.244;6.774;2022-10-31T01:41:15;13.47;;;9.37;;
12356;SDS011;6243;51.244;6.774;2022-10-31T01:43:47;14.23;;;8.97;;
12356;SDS011;6243;51.244;6.774;2022-10-31T01:46:15;13.43;;;8.90;;
12356;SDS011;6243;51.244;6.774;2022-10-31T01:48:44;15.20;;;9.93;;
12356;SDS011;6243;51.244;6.774;2022-10-31T01:51:12;14.97;;;9.83;;
12356;SDS011;6243;51.244;6.774;2022-10-31T01:53:40;15.43;;;10.53;;
12356;SDS011;6243;51.244;6.774;2022-10-31T01:56:07;13.03;;;8.37;;
12356;SDS011;6243;51.244;6.774;2022-10-31T01:58:33;18.57;;;10.23;;
12356;SDS011;6243;51.244;6.774;2022-10-31T02:01:01;15.97;;;9.37;;
12356;SDS011;6243;51.244;6.774;2022-10-31T02:03:28;18.30;;;9.67;;
12356;SDS011;6243;51.244;6.774;2022-10-31T02:05:55;15.70;;;9.50;;
12356;SDS011;6243;51.244;6.774;2022-10-31T02:08:25;14.13;;;9.20;;
12356;SDS011;6243;51.244;6.774;2022-10-31T02:10:52;15.00;;;8.80;;
12356;SDS011;6243;51.244;6.774;2022-10-31T02:13:19;11.87;;;8.17;;
12356;SDS011;6243;51.244;6.774;2022-10-31T02:15:45;13.57;;;8.60;;
12356;SDS011;6243;51.244;6.774;2022-10-31T02:18:14;12.40;;;8.10;;
12356;SDS011;6243;51.244;6.774;2022-10-31T02:20:42;13.00;;;8.37;;
12356;SDS011;6243;51.244;6.774;2022-10-31T02:23:36;19.50;;;9.87;;
12356;SDS011;6243;51.244;6.774;2022-10-31T02:32:25;11.80;;;7.47;;
12356;SDS011;6243;51.244;6.774;2022-10-31T02:34:57;11.33;;;8.13;;
12356;SDS011;6243;51.244;6.774;2022-10-31T02:37:30;11.00;;;8.10;;
12356;SDS011;6243;51.244;6.774;2022-10-31T02:40:04;12.40;;;8.60;;
12356;SDS011;6243;51.244;6.774;2022-10-31T02:42:37;14.23;;;8.43;;
12356;SDS011;6243;51.244;6.774;2022-10-31T02:45:07;14.13;;;8.80;;
12356;SDS011;6243;51.244;6.774;2022-10-31T02:47:40;10.03;;;8.27;;
12356;SDS011;6243;51.244;6.774;2022-10-31T02:50:08;13.03;;;8.07;;
12356;SDS011;6243;51.244;6.774;2022-10-31T02:52:37;12.07;;;8.43;;
12356;SDS011;6243;51.244;6.774;2022-10-31T02:55:10;14.43;;;7.97;;
12356;SDS011;6243;51.244;6.774;2022-10-31T02:57:37;10.30;;;7.83;;
12356;SDS011;6243;51.244;6.774;2022-10-31T03:00:06;11.63;;;8.33;;
12356;SDS011;6243;51.244;6.774;2022-10-31T03:02:41;11.13;;;8.10;;
12356;SDS011;6243;51.244;6.774;2022-10-31T03:05:32;13.47;;;8.77;;
12356;SDS011;6243;51.244;6.774;2022-10-31T03:08:18;12.73;;;7.93;;
12356;SDS011;6243;51.244;6.774;2022-10-31T03:10:49;13.87;;;8.50;;
12356;SDS011;6243;51.244;6.774;2022-10-31T03:13:20;13.57;;;8.53;;
12356;SDS011;6243;51.244;6.774;2022-10-31T03:15:49;12.07;;;7.93;;
12356;SDS011;6243;51.244;6.774;2022-10-31T03:18:18;11.43;;;8.27;;
12356;SDS011;6243;51.244;6.774;2022-10-31T03:20:52;11.53;;;7.23;;
12356;SDS011;6243;51.244;6.774;2022-10-31T03:23:23;13.67;;;7.60;;
12356;SDS011;6243;51.244;6.774;2022-10-31T03:25:50;12.63;;;7.83;;
12356;SDS011;6243;51.244;6.774;2022-10-31T03:28:18;12.93;;;7.97;;
12356;SDS011;6243;51.244;6.774;2022-10-31T03:30:51;11.30;;;7.77;;
12356;SDS011;6243;51.244;6.774;2022-10-31T03:33:21;13.97;;;7.63;;
12356;SDS011;6243;51.244;6.774;2022-10-31T03:35:51;11.43;;;7.90;;
12356;SDS011;6243;51.244;6.774;2022-10-31T03:38:20;11.20;;;8.13;;
12356;SDS011;6243;51.244;6.774;2022-10-31T03:40:47;10.50;;;7.80;;
12356;SDS011;6243;51.244;6.774;2022-10-31T03:43:19;12.27;;;7.23;;
12356;SDS011;6243;51.244;6.774;2022-10-31T03:45:49;15.83;;;8.73;;
12356;SDS011;6243;51.244;6.774;2022-10-31T03:48:15;11.40;;;7.97;;
12356;SDS011;6243;51.244;6.774;2022-10-31T03:50:45;11.90;;;8.23;;
12356;SDS011;6243;51.244;6.774;2022-10-31T03:53:22;14.73;;;7.93;;
12356;SDS011;6243;51.244;6.774;2022-10-31T03:55:52;11.50;;;8.07;;
12356;SDS011;6243;51.244;6.774;2022-10-31T03:58:23;11.40;;;8.07;;
12356;SDS011;6243;51.244;6.774;2022-10-31T04:00:52;13.27;;;8.47;;
12356;SDS011;6243;51.244;6.774;2022-10-31T04:03:21;17.40;;;8.87;;
12356;SDS011;6243;51.244;6.774;2022-10-31T04:05:52;12.83;;;7.80;;
12356;SDS011;6243;51.244;6.774;2022-10-31T04:08:20;14.40;;;7.77;;
12356;SDS011;6243;51.244;6.774;2022-10-31T04:10:49;11.23;;;7.93;;
12356;SDS011;6243;51.244;6.774;2022-10-31T04:13:19;15.20;;;7.70;;
12356;SDS011;6243;51.244;6.774;2022-10-31T04:15:49;13.97;;;8.03;;
12356;SDS011;6243;51.244;6.774;2022-10-31T04:18:17;14.40;;;8.40;;
12356;SDS011;6243;51.244;6.774;2022-10-31T04:20:42;10.67;;;7.80;;
12356;SDS011;6243;51.244;6.774;2022-10-31T04:23:11;11.53;;;7.90;;
12356;SDS011;6243;51.244;6.774;2022-10-31T04:25:43;15.03;;;8.17;;
12356;SDS011;6243;51.244;6.774;2022-10-31T04:28:08;10.50;;;7.67;;
12356;SDS011;6243;51.244;6.774;2022-10-31T04:30:34;15.27;;;8.17;;
12356;SDS011;6243;51.244;6.774;2022-10-31T04:32:59;13.00;;;7.87;;
12356;SDS011;6243;51.244;6.774;2022-10-31T04:35:25;12.03;;;8.10;;
12356;SDS011;6243;51.244;6.774;2022-10-31T04:37:50;14.20;;;8.10;;
12356;SDS011;6243;51.244;6.774;2022-10-31T04:40:17;14.30;;;7.67;;
12356;SDS011;6243;51.244;6.774;2022-10-31T04:42:42;10.67;;;7.63;;
12356;SDS011;6243;51.244;6.774;2022-10-31T04:45:08;15.60;;;8.60;;
12356;SDS011;6243;51.244;6.774;2022-10-31T04:47:34;11.87;;;7.80;;
12356;SDS011;6243;51.244;6.774;2022-10-31T04:50:00;10.00;;;7.60;;
12356;SDS011;6243;51.244;6.774;2022-10-31T04:52:25;11.53;;;7.73;;
12356;SDS011;6243;51.244;6.774;2022-10-31T04:54:51;14.37;;;8.07;;
12356;SDS011;6243;51.244;6.774;2022-10-31T04:57:18;14.60;;;8.37;;
12356;SDS011;6243;51.244;6.774;2022-10-31T04:59:43;12.60;;;8.53;;
12356;SDS011;6243;51.244;6.774;2022-10-31T05:02:09;11.87;;;7.67;;
12356;SDS011;6243;51.244;6.774;2022-10-31T05:04:34;11.33;;;7.67;;
12356;SDS011;6243;51.244;6.774;2022-10-31T05:07:00;13.43;;;8.70;;
12356;SDS011;6243;51.244;6.774;2022-10-31T05:09:25;18.00;;;8.20;;
12356;SDS011;6243;51.244;6.774;2022-10-31T05:11:51;12.23;;;7.87;;
12356;SDS011;6243;51.244;6.774;2022-10-31T05:14:17;11.40;;;7.70;;
12356;SDS011;6243;51.244;6.774;2022-10-31T05:16:43;11.30;;;7.23;;
12356;SDS011;6243;51.244;6.774;2022-10-31T05:19:08;9.83;;;7.50;;
12356;SDS011;6243;51.244;6.774;2022-10-31T05:21:34;10.90;;;7.43;;
12356;SDS011;6243;51.244;6.774;2022-10-31T05:23:59;12.67;;;7.70;;
12356;SDS011;6243;51.244;6.774;2022-10-31T05:26:25;11.37;;;7.13;;
12356;SDS011;6243;51.244;6.774;2022-10-31T05:28:50;10.27;;;7.37;;
12356;SDS011;6243;51.244;6.774;2022-10-31T05:31:17;11.97;;;8.37;;
12356;SDS011;6243;51.244;6.774;2022-10-31T05:33:42;15.50;;;8.03;;
12356;SDS011;6243;51.244;6.774;2022-10-31T05:36:08;10.60;;;7.73;;
12356;SDS011;6243;51.244;6.774;2022-10-31T05:38:33;14.47;;;8.37;;
12356;SDS011;6243;51.244;6.774;2022-10-31T05:40:59;13.03;;;7.77;;
12356;SDS011;6243;51.244;6.774;2022-10-31T05:43:24;9.73;;;7.70;;
12356;SDS011;6243;51.244;6.774;2022-10-31T05:45:51;12.33;;;8.47;;
12356;SDS011;6243;51.244;6.774;2022-10-31T05:48:18;11.13;;;8.20;;
12356;SDS011;6243;51.244;6.774;2022-10-31T05:50:44;15.30;;;7.80;;
12356;SDS011;6243;51.244;6.774;2022-10-31T05:53:09;13.17;;;8.50;;
12356;SDS011;6243;51.244;6.774;2022-10-31T05:55:35;14.30;;;8.27;;
12356;SDS011;6243;51.244;6.774;2022-10-31T05:58:00;12.80;;;8.57;;
12356;SDS011;6243;51.244;6.774;2022-10-31T06:00:26;11.93;;;8.27;;
12356;SDS011;6243;51.244;6.774;2022-10-31T06:02:57;10.83;;;7.73;;
12356;SDS011;6243;51.244;6.774;2022-10-31T06:05:24;13.33;;;8.27;;
12356;SDS011;6243;51.244;6.774;2022-10-31T06:07:50;12.53;;;7.80;;
12356;SDS011;6243;51.244;6.774;2022-10-31T06:10:16;13.57;;;8.10;;
12356;SDS011;6243;51.244;6.774;2022-10-31T06:12:41;13.87;;;8.53;;
12356;SDS011;6243;51.244;6.774;2022-10-31T06:15:07;10.83;;;8.07;;
12356;SDS011;6243;51.244;6.774;2022-10-31T06:17:33;16.13;;;8.73;;
12356;SDS011;6243;51.244;6.774;2022-10-31T06:19:59;10.77;;;7.93;;
12356;SDS011;6243;51.244;6.774;2022-10-31T06:22:27;13.87;;;8.17;;
12356;SDS011;6243;51.244;6.774;2022-10-31T06:24:52;14.07;;;8.27;;
12356;SDS011;6243;51.244;6.774;2022-10-31T06:27:18;12.87;;;8.30;;
12356;SDS011;6243;51.244;6.774;2022-10-31T06:29:43;12.20;;;8.23;;
12356;SDS011;6243;51.244;6.774;2022-10-31T06:32:09;13.80;;;8.23;;
12356;SDS011;6243;51.244;6.774;2022-10-31T06:34:35;13.03;;;8.53;;
12356;SDS011;6243;51.244;6.774;2022-10-31T06:37:00;14.30;;;8.90;;
12356;SDS011;6243;51.244;6.774;2022-10-31T06:39:27;15.00;;;8.90;;
12356;SDS011;6243;51.244;6.774;2022-10-31T06:41:53;12.43;;;7.93;;
12356;SDS011;6243;51.244;6.774;2022-10-31T06:44:18;14.60;;;9.30;;
12356;SDS011;6243;51.244;6.774;2022-10-31T06:46:45;12.03;;;8.20;;
12356;SDS011;6243;51.244;6.774;2022-10-31T06:49:11;12.50;;;8.30;;
12356;SDS011;6243;51.244;6.774;2022-10-31T06:51:37;13.87;;;8.50;;
12356;SDS011;6243;51.244;6.774;2022-10-31T06:54:02;14.77;;;9.80;;
12356;SDS011;6243;51.244;6.774;2022-10-31T06:56:29;18.73;;;9.90;;
12356;SDS011;6243;51.244;6.774;2022-10-31T06:58:55;17.80;;;9.47;;
12356;SDS011;6243;51.244;6.774;2022-10-31T07:01:20;14.87;;;9.40;;
12356;SDS011;6243;51.244;6.774;2022-10-31T07:03:46;15.80;;;9.60;;
12356;SDS011;6243;51.244;6.774;2022-10-31T07:06:11;12.53;;;9.03;;
12356;SDS011;6243;51.244;6.774;2022-10-31T07:08:37;15.30;;;9.53;;
12356;SDS011;6243;51.244;6.774;2022-10-31T07:11:02;15.03;;;8.80;;
12356;SDS011;6243;51.244;6.774;2022-10-31T07:13:29;16.93;;;9.03;;
12356;SDS011;6243;51.244;6.774;2022-10-31T07:15:59;17.53;;;9.57;;
12356;SDS011;6243;51.244;6.774;2022-10-31T07:18:26;15.43;;;9.27;;
12356;SDS011;6243;51.244;6.774;2022-10-31T07:20:52;12.90;;;9.83;;
12356;SDS011;6243;51.244;6.774;2022-10-31T07:23:18;15.10;;;9.27;;
12356;SDS011;6243;51.244;6.774;2022-10-31T07:25:43;15.07;;;9.97;;
12356;SDS011;6243;51.244;6.774;2022-10-31T07:28:09;14.47;;;9.57;;
12356;SDS011;6243;51.244;6.774;2022-10-31T07:30:36;17.37;;;9.37;;
12356;SDS011;6243;51.244;6.774;2022-10-31T07:33:02;17.17;;;10.17;;
12356;SDS011;6243;51.244;6.774;2022-10-31T07:35:28;17.87;;;10.00;;
12356;SDS011;6243;51.244;6.774;2022-10-31T07:37:54;16.73;;;10.30;;
12356;SDS011;6243;51.244;6.774;2022-10-31T07:40:20;14.30;;;9.80;;
12356;SDS011;6243;51.244;6.774;2022-10-31T07:42:47;15.23;;;10.40;;
12356;SDS011;6243;51.244;6.774;2022-10-31T07:45:14;14.27;;;10.00;;
12356;SDS011;6243;51.244;6.774;2022-10-31T07:47:43;15.30;;;10.73;;
12356;SDS011;6243;51.244;6.774;2022-10-31T07:50:11;17.10;;;10.33;;
12356;SDS011;6243;51.244;6.774;2022-10-31T07:52:37;15.80;;;9.90;;
12356;SDS011;6243;51.244;6.774;2022-10-31T07:55:03;14.07;;;9.50;;
12356;SDS011;6243;51.244;6.774;2022-10-31T07:57:30;12.93;;;10.10;;
12356;SDS011;6243;51.244;6.774;2022-10-31T07:59:55;15.93;;;10.30;;
12356;SDS011;6243;51.244;6.774;2022-10-31T08:02:21;15.57;;;10.10;;
12356;SDS011;6243;51.244;6.774;2022-10-31T08:04:48;18.90;;;10.37;;
12356;SDS011;6243;51.244;6.774;2022-10-31T08:07:13;17.67;;;11.20;;
12356;SDS011;6243;51.244;6.774;2022-10-31T08:09:39;14.23;;;10.20;;
12356;SDS011;6243;51.244;6.774;2022-10-31T08:12:05;17.47;;;10.13;;
12356;SDS011;6243;51.244;6.774;2022-10-31T08:14:31;16.37;;;10.90;;
12356;SDS011;6243;51.244;6.774;2022-10-31T08:16:56;13.83;;;10.03;;
12356;SDS011;6243;51.244;6.774;2022-10-31T08:19:22;19.17;;;11.13;;
12356;SDS011;6243;51.244;6.774;2022-10-31T08:21:51;17.53;;;10.60;;
12356;SDS011;6243;51.244;6.774;2022-10-31T08:24:16;16.77;;;10.10;;
12356;SDS011;6243;51.244;6.774;2022-10-31T08:26:42;13.67;;;9.70;;
12356;SDS011;6243;51.244;6.774;2022-10-31T08:29:07;16.60;;;9.90;;
12356;SDS011;6243;51.244;6.774;2022-10-31T08:31:33;17.53;;;10.60;;
12356;SDS011;6243;51.244;6.774;2022-10-31T08:33:58;12.73;;;9.93;;
12356;SDS011;6243;51.244;6.774;2022-10-31T08:36:24;18.47;;;9.37;;
12356;SDS011;6243;51.244;6.774;2022-10-31T08:38:51;12.23;;;8.63;;
12356;SDS011;6243;51.244;6.774;2022-10-31T08:41:16;13.27;;;9.17;;
12356;SDS011;6243;51.244;6.774;2022-10-31T08:43:42;17.57;;;10.27;;
12356;SDS011;6243;51.244;6.774;2022-10-31T08:46:07;15.23;;;8.87;;
12356;SDS011;6243;51.244;6.774;2022-10-31T08:48:33;12.13;;;9.40;;
12356;SDS011;6243;51.244;6.774;2022-10-31T08:50:59;17.87;;;10.10;;
12356;SDS011;6243;51.244;6.774;2022-10-31T08:53:24;17.47;;;9.73;;
12356;SDS011;6243;51.244;6.774;2022-10-31T08:55:53;17.17;;;9.93;;
12356;SDS011;6243;51.244;6.774;2022-10-31T08:58:20;13.30;;;9.87;;
12356;SDS011;6243;51.244;6.774;2022-10-31T09:00:46;14.73;;;9.23;;
12356;SDS011;6243;51.244;6.774;2022-10-31T09:03:13;14.93;;;9.50;;
12356;SDS011;6243;51.244;6.774;2022-10-31T09:05:40;14.50;;;9.47;;
12356;SDS011;6243;51.244;6.774;2022-10-31T09:08:06;14.37;;;9.47;;
12356;SDS011;6243;51.244;6.774;2022-10-31T09:10:33;16.63;;;9.47;;
12356;SDS011;6243;51.244;6.774;2022-10-31T09:13:01;14.17;;;8.83;;
12356;SDS011;6243;51.244;6.774;2022-10-31T09:15:28;12.37;;;9.03;;
12356;SDS011;6243;51.244;6.774;2022-10-31T09:17:54;15.60;;;8.83;;
12356;SDS011;6243;51.244;6.774;2022-10-31T09:20:19;15.47;;;8.93;;
12356;SDS011;6243;51.244;6.774;2022-10-31T09:22:45;16.90;;;9.37;;
12356;SDS011;6243;51.244;6.774;2022-10-31T09:25:11;13.40;;;9.47;;
12356;SDS011;6243;51.244;6.774;2022-10-31T09:27:37;13.10;;;8.47;;
12356;SDS011;6243;51.244;6.774;2022-10-31T09:30:05;14.23;;;8.93;;
12356;SDS011;6243;51.244;6.774;2022-10-31T09:32:31;14.17;;;9.10;;
12356;SDS011;6243;51.244;6.774;2022-10-31T09:34:56;15.17;;;9.30;;
12356;SDS011;6243;51.244;6.774;2022-10-31T09:37:22;10.27;;;7.53;;
12356;SDS011;6243;51.244;6.774;2022-10-31T09:39:47;16.20;;;9.10;;
12356;SDS011;6243;51.244;6.774;2022-10-31T09:42:29;16.57;;;9.10;;
12356;SDS011;6243;51.244;6.774;2022-10-31T09:45:21;12.70;;;8.13;;
12356;SDS011;6243;51.244;6.774;2022-10-31T09:47:54;12.80;;;9.67;;
12356;SDS011;6243;51.244;6.774;2022-10-31T09:50:42;15.10;;;10.40;;
12356;SDS011;6243;51.244;6.774;2022-10-31T09:53:14;15.27;;;10.07;;
12356;SDS011;6243;51.244;6.774;2022-10-31T09:55:47;17.33;;;10.87;;
12356;SDS011;6243;51.244;6.774;2022-10-31T09:58:15;20.37;;;10.87;;
12356;SDS011;6243;51.244;6.774;2022-10-31T10:00:44;16.90;;;10.37;;
12356;SDS011;6243;51.244;6.774;2022-10-31T10:03:15;17.57;;;11.17;;
12356;SDS011;6243;51.244;6.774;2022-10-31T10:05:53;15.00;;;10.77;;
12356;SDS011;6243;51.244;6.774;2022-10-31T10:08:25;15.40;;;10.27;;
12356;SDS011;6243;51.244;6.774;2022-10-31T10:10:54;17.13;;;11.20;;
12356;SDS011;6243;51.244;6.774;2022-10-31T10:13:35;15.47;;;9.93;;
12356;SDS011;6243;51.244;6.774;2022-10-31T10:16:22;17.00;;;11.33;;
12356;SDS011;6243;51.244;6.774;2022-10-31T10:19:05;13.83;;;9.33;;
12356;SDS011;6243;51.244;6.774;2022-10-31T10:21:44;14.03;;;10.03;;
12356;SDS011;6243;51.244;6.774;2022-10-31T10:24:22;18.40;;;9.50;;
12356;SDS011;6243;51.244;6.774;2022-10-31T10:26:59;14.23;;;10.37;;
12356;SDS011;6243;51.244;6.774;2022-10-31T10:29:34;19.90;;;10.90;;
12356;SDS011;6243;51.244;6.774;2022-10-31T10:32:10;16.23;;;10.37;;
12356;SDS011;6243;51.244;6.774;2022-10-31T10:34:43;15.37;;;10.47;;
12356;SDS011;6243;51.244;6.774;2022-10-31T10:37:15;14.83;;;10.63;;
12356;SDS011;6243;51.244;6.774;2022-10-31T10:39:49;15.87;;;10.17;;
12356;SDS011;6243;51.244;6.774;2022-10-31T10:42:19;15.10;;;9.80;;
12356;SDS011;6243;51.244;6.774;2022-10-31T10:44:46;13.83;;;9.30;;
12356;SDS011;6243;51.244;6.774;2022-10-31T10:47:16;14.53;;;9.70;;
12356;SDS011;6243;51.244;6.774;2022-10-31T10:49:43;13.40;;;9.67;;
12356;SDS011;6243;51.244;6.774;2022-10-31T10:52:25;15.27;;;9.10;;
12356;SDS011;6243;51.244;6.774;2022-10-31T10:54:59;15.80;;;9.70;;
12356;SDS011;6243;51.244;6.774;2022-10-31T10:57:40;20.50;;;9.30;;
12356;SDS011;6243;51.244;6.774;2022-10-31T11:00:18;11.23;;;8.87;;
12356;SDS011;6243;51.244;6.774;2022-10-31T11:02:46;13.50;;;7.53;;
12356;SDS011;6243;51.244;6.774;2022-10-31T11:05:13;15.10;;;8.73;;
12356;SDS011;6243;51.244;6.774;2022-10-31T11:07:45;13.77;;;9.00;;
12356;SDS011;6243;51.244;6.774;2022-10-31T11:10:12;18.67;;;8.17;;
12356;SDS011;6243;51.244;6.774;2022-10-31T11:12:39;12.90;;;7.90;;
12356;SDS011;6243;51.244;6.774;2022-10-31T11:15:06;13.43;;;8.03;;
12356;SDS011;6243;51.244;6.774;2022-10-31T11:17:41;16.27;;;8.43;;
12356;SDS011;6243;51.244;6.774;2022-10-31T11:20:22;16.87;;;8.90;;
12356;SDS011;6243;51.244;6.774;2022-10-31T11:22:59;14.70;;;7.90;;
12356;SDS011;6243;51.244;6.774;2022-10-31T11:25:26;11.53;;;7.37;;
12356;SDS011;6243;51.244;6.774;2022-10-31T11:27:58;21.53;;;7.73;;
12356;SDS011;6243;51.244;6.774;2022-10-31T11:30:24;13.13;;;7.33;;
12356;SDS011;6243;51.244;6.774;2022-10-31T11:32:50;12.03;;;7.80;;
12356;SDS011;6243;51.244;6.774;2022-10-31T11:35:19;14.40;;;7.97;;
12356;SDS011;6243;51.244;6.774;2022-10-31T11:37:48;11.93;;;8.33;;
12356;SDS011;6243;51.244;6.774;2022-10-31T11:40:17;14.77;;;7.80;;
12356;SDS011;6243;51.244;6.774;2022-10-31T11:42:46;15.83;;;8.00;;
12356;SDS011;6243;51.244;6.774;2022-10-31T11:45:17;16.90;;;8.20;;
12356;SDS011;6243;51.244;6.774;2022-10-31T11:47:51;13.63;;;8.23;;
12356;SDS011;6243;51.244;6.774;2022-10-31T11:50:22;12.23;;;8.00;;
12356;SDS011;6243;51.244;6.774;2022-10-31T11:52:49;11.07;;;7.10;;
12356;SDS011;6243;51.244;6.774;2022-10-31T11:55:25;9.73;;;7.10;;
12356;SDS011;6243;51.244;6.774;2022-10-31T11:57:56;11.47;;;7.60;;
12356;SDS011;6243;51.244;6.774;2022-10-31T12:00:23;12.27;;;7.73;;
12356;SDS011;6243;51.244;6.774;2022-10-31T12:02:49;12.63;;;6.93;;
12356;SDS011;6243;51.244;6.774;2022-10-31T12:05:17;14.57;;;7.60;;
12356;SDS011;6243;51.244;6.774;2022-10-31T12:07:47;14.67;;;7.43;;
12356;SDS011;6243;51.244;6.774;2022-10-31T12:10:13;10.27;;;6.50;;
12356;SDS011;6243;51.244;6.774;2022-10-31T12:12:52;15.30;;;7.03;;
12356;SDS011;6243;51.244;6.774;2022-10-31T12:15:27;10.23;;;6.13;;
12356;SDS011;6243;51.244;6.774;2022-10-31T12:17:57;12.60;;;7.20;;
12356;SDS011;6243;51.244;6.774;2022-10-31T12:20:38;11.23;;;7.00;;
12356;SDS011;6243;51.244;6.774;2022-10-31T12:23:12;16.13;;;6.90;;
12356;SDS011;6243;51.244;6.774;2022-10-31T12:25:45;14.10;;;6.20;;
12356;SDS011;6243;51.244;6.774;2022-10-31T12:28:28;9.63;;;6.53;;
12356;SDS011;6243;51.244;6.774;2022-10-31T12:31:09;14.73;;;6.03;;
12356;SDS011;6243;51.244;6.774;2022-10-31T12:33:47;10.40;;;5.83;;
12356;SDS011;6243;51.244;6.774;2022-10-31T12:36:29;10.33;;;5.43;;
12356;SDS011;6243;51.244;6.774;2022-10-31T12:39:14;14.80;;;6.70;;
12356;SDS011;6243;51.244;6.774;2022-10-31T12:41:50;12.13;;;5.33;;
12356;SDS011;6243;51.244;6.774;2022-10-31T12:47:27;9.83;;;4.73;;
12356;SDS011;6243;51.244;6.774;2022-10-31T12:50:22;11.97;;;5.00;;
12356;SDS011;6243;51.244;6.774;2022-10-31T12:53:00;9.87;;;4.70;;
12356;SDS011;6243;51.244;6.774;2022-10-31T12:55:37;16.40;;;5.20;;
12356;SDS011;6243;51.244;6.774;2022-10-31T12:58:10;9.33;;;4.53;;
12356;SDS011;6243;51.244;6.774;2022-10-31T13:00:47;11.20;;;5.00;;
12356;SDS011;6243;51.244;6.774;2022-10-31T13:03:21;8.57;;;4.50;;
12356;SDS011;6243;51.244;6.774;2022-10-31T13:05:54;11.27;;;4.40;;
12356;SDS011;6243;51.244;6.774;2022-10-31T13:08:24;7.33;;;4.37;;
12356;SDS011;6243;51.244;6.774;2022-10-31T13:10:58;11.87;;;5.00;;
12356;SDS011;6243;51.244;6.774;2022-10-31T13:13:31;6.87;;;4.17;;
12356;SDS011;6243;51.244;6.774;2022-10-31T13:16:03;10.37;;;4.43;;
12356;SDS011;6243;51.244;6.774;2022-10-31T13:18:37;11.87;;;4.60;;
12356;SDS011;6243;51.244;6.774;2022-10-31T13:21:08;9.50;;;4.70;;
12356;SDS011;6243;51.244;6.774;2022-10-31T13:23:37;12.30;;;4.43;;
12356;SDS011;6243;51.244;6.774;2022-10-31T13:26:08;11.23;;;4.90;;
12356;SDS011;6243;51.244;6.774;2022-10-31T13:28:38;8.13;;;4.23;;
12356;SDS011;6243;51.244;6.774;2022-10-31T13:31:08;9.00;;;4.17;;
12356;SDS011;6243;51.244;6.774;2022-10-31T13:33:34;14.97;;;5.40;;
12356;SDS011;6243;51.244;6.774;2022-10-31T13:36:10;7.17;;;4.27;;
12356;SDS011;6243;51.244;6.774;2022-10-31T13:38:46;6.90;;;4.60;;
12356;SDS011;6243;51.244;6.774;2022-10-31T13:41:20;7.40;;;4.20;;
12356;SDS011;6243;51.244;6.774;2022-10-31T13:43:58;10.53;;;5.53;;
12356;SDS011;6243;51.244;6.774;2022-10-31T13:46:33;8.73;;;4.37;;
12356;SDS011;6243;51.244;6.774;2022-10-31T13:49:00;7.73;;;4.60;;
12356;SDS011;6243;51.244;6.774;2022-10-31T13:51:27;9.70;;;4.13;;
12356;SDS011;6243;51.244;6.774;2022-10-31T13:53:58;7.67;;;4.30;;
12356;SDS011;6243;51.244;6.774;2022-10-31T13:56:26;8.73;;;4.20;;
12356;SDS011;6243;51.244;6.774;2022-10-31T13:59:01;10.97;;;4.83;;
12356;SDS011;6243;51.244;6.774;2022-10-31T14:01:30;9.43;;;4.07;;
12356;SDS011;6243;51.244;6.774;2022-10-31T14:03:58;8.77;;;4.00;;
12356;SDS011;6243;51.244;6.774;2022-10-31T14:06:37;9.37;;;4.50;;
12356;SDS011;6243;51.244;6.774;2022-10-31T14:09:05;12.30;;;4.33;;
12356;SDS011;6243;51.244;6.774;2022-10-31T14:11:44;10.03;;;4.67;;
12356;SDS011;6243;51.244;6.774;2022-10-31T14:14:11;8.53;;;3.97;;
12356;SDS011;6243;51.244;6.774;2022-10-31T14:16:37;7.27;;;4.03;;
12356;SDS011;6243;51.244;6.774;2022-10-31T14:19:06;9.17;;;3.93;;
12356;SDS011;6243;51.244;6.774;2022-10-31T14:21:36;8.00;;;3.90;;
12356;SDS011;6243;51.244;6.774;2022-10-31T14:24:12;8.77;;;4.20;;
12356;SDS011;6243;51.244;6.774;2022-10-31T14:26:39;10.30;;;4.50;;
12356;SDS011;6243;51.244;6.774;2022-10-31T14:29:22;8.27;;;4.23;;
12356;SDS011;6243;51.244;6.774;2022-10-31T14:31:51;10.30;;;4.30;;
12356;SDS011;6243;51.244;6.774;2022-10-31T14:34:22;13.37;;;4.10;;
12356;SDS011;6243;51.244;6.774;2022-10-31T14:36:56;10.80;;;4.17;;
12356;SDS011;6243;51.244;6.774;2022-10-31T14:39:31;14.87;;;4.20;;
12356;SDS011;6243;51.244;6.774;2022-10-31T14:42:06;6.80;;;3.80;;
12356;SDS011;6243;51.244;6.774;2022-10-31T14:44:57;8.10;;;3.90;;
12356;SDS011;6243;51.244;6.774;2022-10-31T14:47:42;11.47;;;4.33;;
12356;SDS011;6243;51.244;6.774;2022-10-31T14:50:18;7.87;;;4.40;;
12356;SDS011;6243;51.244;6.774;2022-10-31T14:52:48;7.23;;;4.20;;
12356;SDS011;6243;51.244;6.774;2022-10-31T14:55:16;13.73;;;4.70;;
12356;SDS011;6243;51.244;6.774;2022-10-31T14:57:44;7.30;;;4.33;;
12356;SDS011;6243;51.244;6.774;2022-10-31T15:00:17;13.50;;;3.77;;
12356;SDS011;6243;51.244;6.774;2022-10-31T15:02:46;8.00;;;3.90;;
12356;SDS011;6243;51.244;6.774;2022-10-31T15:05:20;16.90;;;4.63;;
12356;SDS011;6243;51.244;6.774;2022-10-31T15:07:50;7.93;;;3.77;;
12356;SDS011;6243;51.244;6.774;2022-10-31T15:10:19;9.50;;;3.90;;